Saint-Prime, Canada
Current Conditions -  °F | °C
As of 10:00 PM on Thursday 18 Dec 2014 (Local Time) from CYRJ Reporting Station
Scattered Clouds Scattered Clouds  
Wind Chill:   Ceiling: Unl
Heat Index: 18°   Visibility: 25mi
Dew Point: 12°   Wind: 12mph
Humidity: 79%   Direction: 300°WNW
Pressure: 29.91"   Gusts: NA
Location:  48.6°N, 72.33°W
Report Text: CYRJ 190300Z 30010KT 25SM SCT090 M08/M11 A2991 RMK AC3 SLP140
Loading
Personal Weather Stations






























Interactive Weather Map New forecast layout! Learn more

10-Day Weather Forecast

Advertisements
Track Severe Weather on mobile